Time;durP1;ratioP1;P1;durP2;ratioP2;P2;SDS_P1;SDS_P2;PMS_P1;PMS_P2;Temp;Humidity;BMP_temperature;BMP_pressure;BME280_temperature;BME280_humidity;BME280_pressure;Samples;Min_cycle;Max_cycle;Signal;HPM_P1;HPM_P2
2022/06/09 00:01:49;;;;;;;5.53;2.90;;;20.30;66.90;21.40;100062.00;;;;4986253;28;20770;-42
2022/06/09 00:04:35;;;;;;;6.93;3.20;;;20.20;66.80;21.40;100046.00;;;;4986729;28;20162;-44
2022/06/09 00:07:10;;;;;;;5.40;2.80;;;20.20;66.90;21.30;100074.00;;;;4986788;28;20240;-42
2022/06/09 00:09:40;;;;;;;4.70;2.90;;;20.20;66.70;21.30;100075.00;;;;4987180;28;20161;-42
2022/06/09 00:12:06;;;;;;;6.77;3.00;;;20.20;66.80;21.30;100075.00;;;;4986364;28;20197;-43
2022/06/09 00:14:32;;;;;;;4.03;2.60;;;20.20;66.80;21.30;100075.00;;;;4986053;28;20187;-43
2022/06/09 00:16:58;;;;;;;4.80;2.60;;;20.10;66.60;21.30;100080.00;;;;4987387;28;20257;-42
2022/06/09 00:19:24;;;;;;;4.63;2.87;;;20.10;66.50;21.20;100074.00;;;;4986862;28;20175;-42
2022/06/09 00:21:49;;;;;;;4.73;2.83;;;20.10;66.50;21.20;100080.00;;;;4987091;28;20263;-42
2022/06/09 00:24:17;;;;;;;6.33;2.70;;;20.10;66.40;21.20;100075.00;;;;4986540;28;20185;-42
2022/06/09 00:26:43;;;;;;;5.90;2.60;;;20.10;66.10;21.20;100056.00;;;;4986738;28;20229;-42
2022/06/09 00:29:09;;;;;;;5.90;2.87;;;20.10;66.00;21.20;100091.00;;;;4985729;28;20172;-43
2022/06/09 00:31:34;;;;;;;4.67;2.70;;;20.10;66.90;21.20;100084.00;;;;4987508;28;20193;-42
2022/06/09 00:34:00;;;;;;;6.00;2.93;;;20.10;66.20;21.10;100088.00;;;;4987401;28;20224;-42
2022/06/09 00:36:26;;;;;;;5.33;2.47;;;20.10;66.00;21.10;100086.00;;;;4987310;28;20167;-42
2022/06/09 00:38:52;;;;;;;5.73;2.70;;;20.00;66.00;21.10;100086.00;;;;4987442;28;20178;-42
2022/06/09 00:41:17;;;;;;;7.40;2.70;;;20.00;66.00;21.10;100083.00;;;;4987196;28;20258;-43
2022/06/09 00:43:44;;;;;;;3.73;2.47;;;20.00;65.80;20.90;100090.00;;;;4987323;28;20302;-42
2022/06/09 00:46:13;;;;;;;5.57;2.60;;;20.00;65.80;21.10;100089.00;;;;4987312;28;20188;-42
2022/06/09 00:49:04;;;;;;;4.53;2.50;;;20.00;66.00;21.10;100107.00;;;;4987219;28;20578;-43
2022/06/09 00:51:42;;;;;;;4.30;2.50;;;20.10;66.00;21.10;100105.00;;;;4985928;28;20207;-43
2022/06/09 00:54:14;;;;;;;5.03;2.60;;;20.00;65.90;21.10;100105.00;;;;4986119;28;20187;-44
2022/06/09 00:57:11;;;;;;;3.67;2.30;;;20.00;66.00;21.10;100116.00;;;;4985900;28;20222;-43
2022/06/09 00:59:37;;;;;;;4.33;2.30;;;20.00;65.80;21.00;100116.00;;;;4985145;28;20680;-44
2022/06/09 01:02:06;;;;;;;4.87;2.57;;;20.00;65.80;21.00;100106.00;;;;4994612;28;20217;-46
2022/06/09 01:04:32;;;;;;;4.07;2.47;;;19.90;65.70;21.00;100123.00;;;;4999508;28;20235;-43
2022/06/09 01:07:03;;;;;;;4.23;2.30;;;19.90;65.60;21.10;100123.00;;;;4988362;28;20756;-44
2022/06/09 01:09:29;;;;;;;3.43;2.60;;;20.00;65.80;21.10;100121.00;;;;4986157;28;20208;-43
2022/06/09 01:11:55;;;;;;;4.77;2.57;;;20.10;65.80;21.10;100128.00;;;;4986901;28;20192;-43
2022/06/09 01:14:28;;;;;;;4.67;2.10;;;20.10;65.60;21.10;100134.00;;;;4988796;28;20178;-43
2022/06/09 01:17:20;;;;;;;4.60;2.30;;;20.10;65.50;21.20;100134.00;;;;4990363;28;20166;-43
2022/06/09 01:20:10;;;;;;;4.73;2.63;;;20.10;65.40;21.20;100142.00;;;;4990048;28;20157;-43
2022/06/09 01:22:48;;;;;;;5.03;2.20;;;20.10;65.50;21.10;100140.00;;;;4991112;28;20200;-43
2022/06/09 01:25:51;;;;;;;4.00;2.23;;;20.00;65.20;21.10;100143.00;;;;4990779;28;20235;-43
2022/06/09 01:28:48;;;;;;;3.70;2.20;;;20.00;65.40;21.10;100148.00;;;;4990422;28;20225;-42
2022/06/09 01:31:16;;;;;;;4.30;2.37;;;20.00;65.20;21.10;100138.00;;;;4990761;28;20479;-47
2022/06/09 01:34:10;;;;;;;5.80;2.40;;;19.90;65.20;21.10;100139.00;;;;4989545;28;20165;-43
2022/06/09 01:36:52;;;;;;;3.73;2.33;;;19.90;65.50;21.00;100147.00;;;;4989099;28;20168;-43
2022/06/09 01:39:18;;;;;;;5.03;2.33;;;19.90;65.70;21.00;100146.00;;;;4989491;28;20150;-43
2022/06/09 01:41:48;;;;;;;4.07;2.37;;;19.90;65.40;21.00;100140.00;;;;4989507;28;20200;-43
2022/06/09 01:44:16;;;;;;;3.00;2.27;;;19.90;65.40;21.00;100145.00;;;;4990953;28;20643;-42
2022/06/09 01:46:42;;;;;;;4.47;2.10;;;19.90;65.40;21.00;100147.00;;;;4989004;28;20263;-42
2022/06/09 01:49:25;;;;;;;4.33;2.43;;;19.90;65.40;21.00;100146.00;;;;4989074;28;20287;-43
2022/06/09 01:51:51;;;;;;;3.97;2.40;;;19.90;65.40;21.00;100147.00;;;;4989135;28;20188;-43
2022/06/09 01:54:19;;;;;;;4.57;2.20;;;19.90;65.30;21.00;100152.00;;;;4989070;28;20674;-44
2022/06/09 01:56:54;;;;;;;4.60;2.30;;;19.90;65.20;21.00;100150.00;;;;4989170;28;20161;-43
2022/06/09 01:59:30;;;;;;;3.57;2.33;;;19.90;65.20;21.00;100151.00;;;;4973110;28;20180;-44
2022/06/09 02:02:07;;;;;;;3.77;2.30;;;19.90;65.10;21.00;100145.00;;;;4972597;28;20227;-42
2022/06/09 02:04:53;;;;;;;4.13;2.20;;;19.80;65.00;21.00;100164.00;;;;4988944;28;20242;-42
2022/06/09 02:07:19;;;;;;;4.13;2.30;;;19.90;65.20;21.00;100162.00;;;;4988808;28;20196;-43
2022/06/09 02:09:45;;;;;;;6.27;2.33;;;19.90;65.00;21.00;100162.00;;;;4988807;28;20261;-44
2022/06/09 02:12:16;;;;;;;3.20;2.10;;;19.90;65.00;21.00;100161.00;;;;4989818;28;20607;-43
2022/06/09 02:14:48;;;;;;;3.50;2.30;;;19.90;65.10;21.00;100158.00;;;;4988881;28;20156;-43
2022/06/09 02:17:14;;;;;;;4.00;2.40;;;19.90;65.10;21.00;100142.00;;;;4988699;28;20169;-43
2022/06/09 02:19:40;;;;;;;5.37;2.20;;;19.90;65.00;21.00;100155.00;;;;4990298;28;20180;-42
2022/06/09 02:22:07;;;;;;;4.17;2.47;;;19.90;65.00;21.00;100174.00;;;;5004651;28;20201;-43
2022/06/09 02:24:33;;;;;;;4.97;2.33;;;19.90;65.00;21.00;100172.00;;;;4997458;28;20556;-44
2022/06/09 02:27:00;;;;;;;3.77;2.43;;;19.90;64.90;21.00;100171.00;;;;4988904;28;20174;-42
2022/06/09 02:29:25;;;;;;;3.50;2.20;;;19.80;65.00;21.00;100170.00;;;;4989444;28;20174;-44
2022/06/09 02:31:51;;;;;;;4.43;2.47;;;19.80;65.00;21.00;100170.00;;;;4989917;28;20255;-43
2022/06/09 02:34:17;;;;;;;4.93;2.60;;;19.90;65.10;21.00;100182.00;;;;4996022;28;20168;-43
2022/06/09 02:36:43;;;;;;;4.93;2.20;;;19.80;64.90;21.00;100171.00;;;;4995247;28;20163;-43
2022/06/09 02:39:09;;;;;;;4.13;2.30;;;19.80;65.10;20.90;100174.00;;;;4989586;28;20598;-43
2022/06/09 02:41:35;;;;;;;5.50;2.50;;;19.70;65.00;20.90;100174.00;;;;4989108;28;20232;-43
2022/06/09 02:44:00;;;;;;;4.70;2.40;;;19.80;65.20;20.90;100173.00;;;;4989512;28;20221;-43
2022/06/09 02:46:26;;;;;;;4.17;2.33;;;19.70;65.00;20.90;100177.00;;;;4989411;28;20579;-43
2022/06/09 02:48:53;;;;;;;5.10;2.50;;;19.80;65.20;20.90;100174.00;;;;4989022;28;20236;-42
2022/06/09 02:51:33;;;;;;;4.10;2.43;;;19.80;65.20;20.90;100176.00;;;;4989320;28;20279;-43
2022/06/09 02:54:04;;;;;;;5.17;2.53;;;19.80;65.10;20.90;100170.00;;;;4989358;28;20556;-42
2022/06/09 02:56:30;;;;;;;5.27;2.50;;;19.70;65.20;20.80;100177.00;;;;4989244;28;20167;-44
2022/06/09 02:58:56;;;;;;;4.70;2.50;;;19.70;65.20;20.80;100174.00;;;;4989167;28;20165;-42
2022/06/09 03:01:26;;;;;;;3.77;2.30;;;19.70;65.20;20.80;100183.00;;;;4989044;28;20234;-44
2022/06/09 03:03:52;;;;;;;3.47;2.40;;;19.70;65.30;20.80;100180.00;;;;4989288;28;20235;-43
2022/06/09 03:06:17;;;;;;;5.23;2.70;;;19.70;65.20;20.80;100174.00;;;;4988907;28;20176;-43
2022/06/09 03:08:43;;;;;;;5.37;2.60;;;19.60;65.30;20.80;100177.00;;;;4988553;28;20594;-42
2022/06/09 03:11:10;;;;;;;5.87;2.60;;;19.60;65.30;20.80;100179.00;;;;4988732;28;20199;-43
2022/06/09 03:13:38;;;;;;;5.43;2.70;;;19.60;65.20;20.80;100180.00;;;;4989287;28;20172;-43
2022/06/09 03:16:05;;;;;;;5.83;2.40;;;19.60;65.20;20.80;100179.00;;;;4989297;28;20168;-43
2022/06/09 03:18:32;;;;;;;5.77;2.70;;;19.70;65.20;20.80;100182.00;;;;4992164;28;20268;-44
2022/06/09 03:20:57;;;;;;;5.70;2.60;;;19.60;65.20;20.80;100187.00;;;;4992315;28;20188;-42
2022/06/09 03:23:23;;;;;;;5.07;2.70;;;19.60;65.20;20.80;100184.00;;;;4990163;28;20220;-42
2022/06/09 03:25:49;;;;;;;5.07;2.60;;;19.60;65.30;20.80;100199.00;;;;4989036;28;20227;-44
2022/06/09 03:28:15;;;;;;;4.70;2.77;;;19.60;65.30;20.80;100190.00;;;;4988775;28;20196;-43
2022/06/09 03:30:40;;;;;;;5.40;2.67;;;19.60;65.30;20.80;100195.00;;;;4988436;28;20970;-44
2022/06/09 03:33:06;;;;;;;6.80;2.90;;;19.70;65.30;20.80;100207.00;;;;4988618;28;20191;-42
2022/06/09 03:35:32;;;;;;;6.87;3.00;;;19.70;65.80;20.80;100211.00;;;;5001880;28;20187;-44
2022/06/09 03:37:58;;;;;;;5.73;2.70;;;19.70;65.60;20.80;100212.00;;;;4981624;28;20185;-42
2022/06/09 03:40:24;;;;;;;8.47;3.10;;;19.70;65.40;20.80;100205.00;;;;4968588;28;20210;-43
2022/06/09 03:42:51;;;;;;;7.17;2.67;;;19.70;65.30;20.80;100214.00;;;;4968745;28;20288;-43
2022/06/09 03:45:17;;;;;;;6.27;2.80;;;19.70;65.30;20.80;100224.00;;;;4968623;28;20171;-44
2022/06/09 03:47:42;;;;;;;6.07;2.70;;;19.70;65.30;20.80;100217.00;;;;4968221;28;20197;-42
2022/06/09 03:50:15;;;;;;;7.53;3.00;;;19.70;65.20;20.80;100219.00;;;;4968481;28;20168;-42
2022/06/09 03:52:41;;;;;;;5.27;2.60;;;19.70;65.10;20.80;100227.00;;;;4950441;28;20184;-42
2022/06/09 03:55:07;;;;;;;7.70;2.60;;;19.70;65.10;20.80;100231.00;;;;4968573;28;20530;-42
2022/06/09 03:57:33;;;;;;;6.83;2.77;;;19.70;65.00;20.80;100231.00;;;;4968390;28;20201;-42
2022/06/09 03:59:58;;;;;;;7.27;2.60;;;19.70;65.00;20.80;100242.00;;;;4967090;28;20219;-43
2022/06/09 04:02:24;;;;;;;5.87;2.67;;;19.70;65.20;20.80;100234.00;;;;4966887;28;20288;-43
2022/06/09 04:04:52;;;;;;;8.30;2.80;;;19.70;65.00;20.80;100247.00;;;;4968308;28;20784;-43
2022/06/09 04:07:18;;;;;;;5.53;2.83;;;19.70;65.20;20.80;100256.00;;;;4968103;28;20204;-43
2022/06/09 04:09:44;;;;;;;8.17;2.53;;;19.70;65.30;20.80;100253.00;;;;4968398;28;20579;-43
2022/06/09 04:12:11;;;;;;;7.00;2.50;;;19.70;65.40;20.80;100259.00;;;;4967732;28;20271;-43
2022/06/09 04:14:36;;;;;;;5.77;2.70;;;19.70;65.60;20.80;100264.00;;;;4967978;28;20773;-43
2022/06/09 04:17:02;;;;;;;10.27;2.87;;;19.60;65.30;20.80;100265.00;;;;4968163;28;20217;-43
2022/06/09 04:19:28;;;;;;;12.73;3.40;;;19.70;65.60;20.80;100272.00;;;;4968019;28;20161;-44
2022/06/09 04:21:54;;;;;;;9.20;3.20;;;19.60;65.40;20.80;100261.00;;;;4967287;28;20853;-43
2022/06/09 04:24:19;;;;;;;12.97;3.30;;;19.70;65.40;20.80;100273.00;;;;4967496;28;20173;-43
2022/06/09 04:26:46;;;;;;;10.83;3.33;;;19.70;65.40;20.80;100268.00;;;;4967496;28;20762;-43
2022/06/09 04:29:12;;;;;;;10.00;3.20;;;19.70;65.30;20.80;100273.00;;;;4967093;28;20280;-43
2022/06/09 04:31:39;;;;;;;10.13;3.27;;;19.60;65.50;20.80;100279.00;;;;4967082;28;20733;-43
2022/06/09 04:34:04;;;;;;;7.77;3.00;;;19.60;65.70;20.80;100289.00;;;;4966170;28;20643;-43
2022/06/09 04:36:30;;;;;;;11.87;3.60;;;19.70;65.70;20.80;100282.00;;;;4967475;28;20184;-43
2022/06/09 04:38:56;;;;;;;6.17;3.20;;;19.60;65.60;20.80;100291.00;;;;4966684;28;20228;-43
2022/06/09 04:41:22;;;;;;;6.73;3.10;;;19.70;65.60;20.80;100289.00;;;;4965494;28;20189;-42
2022/06/09 04:43:48;;;;;;;7.33;3.00;;;19.70;65.60;20.80;100288.00;;;;4967409;28;20196;-44
2022/06/09 04:46:20;;;;;;;8.87;3.00;;;19.70;65.60;20.80;100301.00;;;;4967216;28;20177;-42
2022/06/09 04:48:45;;;;;;;9.47;3.30;;;19.60;65.50;20.80;100298.00;;;;4978172;28;20215;-42
2022/06/09 04:51:13;;;;;;;9.60;3.13;;;19.60;65.40;20.70;100293.00;;;;4974681;28;20173;-43
2022/06/09 04:53:39;;;;;;;7.43;3.00;;;19.60;65.40;20.70;100293.00;;;;4967103;28;20181;-43
2022/06/09 04:56:05;;;;;;;7.27;3.20;;;19.60;65.40;20.70;100291.00;;;;4967247;28;20188;-42
2022/06/09 04:58:31;;;;;;;6.27;3.23;;;19.60;65.40;20.70;100297.00;;;;4967420;28;20177;-43
2022/06/09 05:00:57;;;;;;;6.43;3.20;;;19.60;65.40;20.70;100300.00;;;;4966921;28;20203;-42
2022/06/09 05:03:23;;;;;;;5.97;2.93;;;19.60;65.60;20.70;100306.00;;;;4967006;28;20193;-45
2022/06/09 05:05:49;;;;;;;8.20;3.20;;;19.60;65.50;20.70;100298.00;;;;4967046;28;20173;-42
2022/06/09 05:08:15;;;;;;;7.43;3.30;;;19.60;65.40;20.70;100308.00;;;;4965735;28;20960;-43
2022/06/09 05:10:42;;;;;;;7.53;3.07;;;19.60;65.40;20.70;100316.00;;;;4966960;28;20169;-44
2022/06/09 05:13:09;;;;;;;7.33;3.00;;;19.60;65.50;20.70;100308.00;;;;4966815;28;20284;-44
2022/06/09 05:15:37;;;;;;;6.33;3.40;;;19.60;65.40;20.70;100290.00;;;;4972032;28;20172;-43
2022/06/09 05:18:03;;;;;;;5.83;3.40;;;19.60;65.40;20.70;100314.00;;;;4965726;28;20260;-43
2022/06/09 05:20:29;;;;;;;6.07;2.90;;;19.60;65.40;20.70;100324.00;;;;4966367;28;20690;-43
2022/06/09 05:22:55;;;;;;;7.20;3.23;;;19.60;65.40;20.70;100324.00;;;;4966575;28;20224;-44
2022/06/09 05:25:21;;;;;;;7.67;3.70;;;19.60;65.50;20.70;100325.00;;;;4967327;28;20223;-44
2022/06/09 05:27:47;;;;;;;7.43;3.30;;;19.60;65.60;20.70;100330.00;;;;4966448;28;20331;-46
2022/06/09 05:30:20;;;;;;;7.13;3.43;;;19.50;65.50;20.70;100330.00;;;;4966927;28;20178;-43
2022/06/09 05:32:46;;;;;;;6.17;3.50;;;19.50;66.30;20.60;100334.00;;;;4966459;28;20185;-44
2022/06/09 05:35:12;;;;;;;5.83;3.30;;;19.60;65.70;20.60;100346.00;;;;4965670;28;20225;-42
2022/06/09 05:46:05;;;;;;;7.03;3.63;;;19.50;65.60;20.60;100345.00;;;;4967015;28;20184;-43
2022/06/09 05:48:31;;;;;;;6.50;3.37;;;19.50;65.60;20.60;100354.00;;;;4967656;28;20208;-43
2022/06/09 05:50:57;;;;;;;7.17;3.50;;;19.50;65.60;20.60;100361.00;;;;4966585;28;20169;-43
2022/06/09 05:53:23;;;;;;;6.50;3.60;;;19.50;65.60;20.60;100356.00;;;;4967789;28;20188;-42
2022/06/09 05:55:48;;;;;;;6.13;3.60;;;19.50;65.60;20.60;100354.00;;;;4974216;28;20200;-42
2022/06/09 05:58:14;;;;;;;7.47;3.80;;;19.50;65.70;20.60;100363.00;;;;4973707;28;20177;-43
2022/06/09 06:00:45;;;;;;;5.83;3.23;;;19.50;65.80;20.60;100365.00;;;;4974617;28;20220;-43
2022/06/09 06:03:12;;;;;;;5.70;3.27;;;19.50;65.90;20.60;100366.00;;;;4982256;28;20260;-43
2022/06/09 06:08:23;;;;;;;6.17;3.37;;;19.40;65.80;20.60;100372.00;;;;4969611;28;20268;-43
2022/06/09 06:10:48;;;;;;;5.10;3.33;;;19.40;65.80;20.60;100364.00;;;;4969739;28;20768;-42
2022/06/09 06:13:14;;;;;;;6.03;3.80;;;19.40;65.80;20.60;100367.00;;;;4968616;28;20233;-42
2022/06/09 06:15:40;;;;;;;6.77;3.43;;;19.40;65.90;20.60;100382.00;;;;4970382;28;20180;-42
2022/06/09 06:18:06;;;;;;;5.80;3.50;;;19.40;65.80;20.60;100363.00;;;;4974282;28;20181;-43
2022/06/09 06:20:32;;;;;;;5.73;3.30;;;19.40;65.80;20.60;100387.00;;;;4976216;28;20422;-43
2022/06/09 06:22:58;;;;;;;6.27;3.60;;;19.40;65.80;20.60;100391.00;;;;4970143;28;20251;-43
2022/06/09 06:25:24;;;;;;;6.40;3.67;;;19.40;65.70;20.60;100395.00;;;;4970109;28;20220;-43
2022/06/09 06:27:50;;;;;;;7.43;3.60;;;19.40;65.80;20.60;100404.00;;;;4969533;28;20791;-43
2022/06/09 06:30:16;;;;;;;5.67;3.40;;;19.40;65.80;20.50;100398.00;;;;4969699;28;20165;-42
2022/06/09 06:32:41;;;;;;;6.97;3.53;;;19.40;65.60;20.60;100405.00;;;;4968229;28;20189;-43
2022/06/09 06:35:08;;;;;;;6.60;3.50;;;19.40;65.60;20.50;100408.00;;;;4969598;28;20183;-43
2022/06/09 06:37:33;;;;;;;6.47;3.60;;;19.40;65.80;20.50;100407.00;;;;4969898;28;20180;-43
2022/06/09 06:39:59;;;;;;;7.20;3.50;;;19.40;65.90;20.50;100415.00;;;;4971777;28;20537;-43
2022/06/09 06:42:25;;;;;;;6.33;3.93;;;19.40;65.70;20.50;100419.00;;;;4969194;28;20197;-43
2022/06/09 06:44:51;;;;;;;7.73;3.70;;;19.30;65.80;20.50;100425.00;;;;4975614;28;20177;-43
2022/06/09 06:47:17;;;;;;;6.90;3.90;;;19.30;65.80;20.50;100431.00;;;;4984479;28;20192;-43
2022/06/09 06:49:43;;;;;;;8.73;3.90;;;19.30;65.90;20.40;100441.00;;;;4988710;28;20180;-43
2022/06/09 06:52:09;;;;;;;6.67;3.80;;;19.30;65.90;20.50;100441.00;;;;4988255;28;20275;-43
2022/06/09 06:54:35;;;;;;;5.63;3.70;;;19.40;65.90;20.50;100446.00;;;;4988750;28;20203;-42
2022/06/09 06:57:03;;;;;;;6.57;3.90;;;19.40;65.90;20.50;100447.00;;;;4988793;28;20200;-43
2022/06/09 06:59:29;;;;;;;7.37;3.87;;;19.40;66.00;20.50;100447.00;;;;4988226;28;20168;-43
2022/06/09 07:01:54;;;;;;;9.00;4.60;;;19.30;65.90;20.40;100453.00;;;;4988448;28;20189;-42
2022/06/09 07:04:20;;;;;;;6.50;3.77;;;19.30;65.90;20.40;100456.00;;;;4988369;28;20183;-44
2022/06/09 07:06:46;;;;;;;8.77;4.27;;;19.40;66.00;20.40;100469.00;;;;4988315;28;20177;-43
2022/06/09 07:09:11;;;;;;;7.80;3.87;;;19.30;65.90;20.40;100456.00;;;;4988022;28;20193;-42
2022/06/09 07:11:39;;;;;;;6.93;4.03;;;19.30;65.90;20.40;100463.00;;;;4987310;28;20185;-42
2022/06/09 07:14:04;;;;;;;6.10;4.10;;;19.30;65.90;20.40;100466.00;;;;4879940;28;20172;-42
2022/06/09 07:16:30;;;;;;;8.47;4.17;;;19.30;65.90;20.40;100478.00;;;;4987301;28;20187;-44
2022/06/09 07:18:56;;;;;;;7.60;4.27;;;19.30;65.90;20.40;100481.00;;;;4987974;28;20301;-42
2022/06/09 07:21:22;;;;;;;7.87;4.07;;;19.30;65.90;20.50;100480.00;;;;4987809;28;20188;-44
2022/06/09 07:23:47;;;;;;;5.60;3.90;;;19.30;66.00;20.50;100495.00;;;;4988126;28;20185;-43
2022/06/09 07:26:13;;;;;;;6.53;3.60;;;19.30;66.00;20.50;100479.00;;;;4987832;28;20187;-42
2022/06/09 07:28:39;;;;;;;6.63;4.07;;;19.30;65.90;20.50;100492.00;;;;4987720;28;20196;-42
2022/06/09 07:31:05;;;;;;;7.63;4.13;;;19.40;66.00;20.50;100491.00;;;;4987725;28;20247;-44
2022/06/09 07:33:33;;;;;;;7.23;4.30;;;19.30;66.10;20.50;100491.00;;;;4986682;28;20750;-44
2022/06/09 07:36:00;;;;;;;5.10;4.07;;;19.40;66.00;20.30;100488.00;;;;4988718;28;20177;-42
2022/06/09 07:38:26;;;;;;;7.60;4.57;;;19.40;66.00;20.50;100486.00;;;;4984348;28;20176;-42
2022/06/09 07:40:52;;;;;;;5.83;4.43;;;19.40;66.00;20.50;100489.00;;;;4989284;28;20186;-43
2022/06/09 07:43:19;;;;;;;6.03;4.30;;;19.40;66.00;20.50;100495.00;;;;4988824;28;20192;-43
2022/06/09 07:45:45;;;;;;;8.63;4.30;;;19.40;66.10;20.50;100502.00;;;;4990195;28;20184;-43
2022/06/09 07:48:10;;;;;;;7.27;4.60;;;19.40;66.00;20.50;100503.00;;;;4989597;28;20250;-43
2022/06/09 07:50:36;;;;;;;10.07;4.67;;;19.40;66.00;20.50;100505.00;;;;4990306;28;20577;-43
2022/06/09 07:53:02;;;;;;;6.23;4.33;;;19.40;66.00;20.50;100505.00;;;;4972786;28;20195;-43
2022/06/09 07:55:28;;;;;;;6.40;4.50;;;19.40;66.00;20.50;100514.00;;;;4990262;28;20180;-43
2022/06/09 07:57:54;;;;;;;6.43;4.27;;;19.40;66.10;20.50;100514.00;;;;4989823;28;20247;-42
2022/06/09 08:00:21;;;;;;;5.93;3.80;;;19.40;66.00;20.50;100513.00;;;;4989771;28;20608;-43
2022/06/09 08:02:48;;;;;;;6.00;4.10;;;19.40;66.00;20.50;100516.00;;;;4972889;28;20230;-44
2022/06/09 08:05:15;;;;;;;5.10;3.93;;;19.40;66.00;20.50;100514.00;;;;4989884;28;20191;-43
2022/06/09 08:07:41;;;;;;;6.60;4.03;;;19.40;66.00;20.50;100530.00;;;;4989400;28;20196;-43
2022/06/09 08:10:07;;;;;;;7.03;4.00;;;19.40;66.00;20.50;100521.00;;;;4989956;28;20200;-43
2022/06/09 08:12:33;;;;;;;11.17;4.90;;;19.40;65.90;20.50;100522.00;;;;4989467;28;20200;-43
2022/06/09 08:14:59;;;;;;;10.47;4.17;;;19.40;66.50;20.50;100531.00;;;;4802111;28;20272;-44
2022/06/09 08:17:25;;;;;;;6.57;3.83;;;19.40;66.80;20.50;100531.00;;;;4989341;28;20208;-44
2022/06/09 08:19:51;;;;;;;5.53;3.90;;;19.40;66.50;20.50;100536.00;;;;4989375;28;20203;-44
2022/06/09 08:22:17;;;;;;;8.30;4.00;;;19.40;66.30;20.50;100539.00;;;;4989244;28;20673;-44
2022/06/09 08:24:43;;;;;;;5.67;3.80;;;19.40;66.30;20.50;100544.00;;;;4989720;28;20263;-43
2022/06/09 08:27:09;;;;;;;6.10;3.80;;;19.40;66.40;20.50;100545.00;;;;4989325;28;20263;-44
2022/06/09 08:29:35;;;;;;;6.63;4.20;;;19.40;66.60;20.50;100556.00;;;;4989092;28;20204;-44
2022/06/09 08:32:00;;;;;;;6.00;3.90;;;19.40;66.60;20.50;100558.00;;;;4989304;28;20201;-42
2022/06/09 08:34:26;;;;;;;7.40;3.90;;;19.40;66.60;20.50;100565.00;;;;4988244;28;20264;-42
2022/06/09 08:36:52;;;;;;;4.20;3.80;;;19.40;66.60;20.50;100562.00;;;;4989663;28;20192;-43
2022/06/09 08:39:18;;;;;;;4.63;3.83;;;19.40;66.60;20.50;100560.00;;;;4989197;28;20179;-42
2022/06/09 08:42:05;;;;;;;5.43;3.93;;;19.40;66.50;20.50;100561.00;;;;4989539;28;20201;-44
2022/06/09 08:45:17;;;;;;;5.47;3.60;;;19.40;66.50;20.50;100570.00;;;;4989467;28;20234;-43
2022/06/09 08:47:50;;;;;;;4.70;3.67;;;19.40;66.40;20.50;100569.00;;;;4988171;28;20219;-43
2022/06/09 08:50:32;;;;;;;5.67;4.23;;;19.40;66.40;20.50;100571.00;;;;4972380;28;20181;-43
2022/06/09 08:53:09;;;;;;;4.67;3.73;;;19.40;66.40;20.50;100566.00;;;;4973381;28;20279;-42
2022/06/09 08:55:40;;;;;;;6.97;4.10;;;19.40;66.40;20.50;100577.00;;;;4989755;28;20172;-42
2022/06/09 08:58:24;;;;;;;4.93;3.63;;;19.40;66.50;20.50;100570.00;;;;4988964;28;20259;-44
2022/06/09 09:01:09;;;;;;;5.03;3.97;;;19.40;66.40;20.50;100575.00;;;;4988404;28;20602;-43
2022/06/09 09:03:40;;;;;;;5.10;3.70;;;19.40;66.40;20.50;100579.00;;;;4987963;28;20164;-43
2022/06/09 09:06:36;;;;;;;4.87;3.50;;;19.40;66.60;20.50;100575.00;;;;4988859;28;20168;-43
2022/06/09 09:09:32;;;;;;;3.93;3.50;;;19.40;66.40;20.50;100588.00;;;;4988087;28;20235;-44
2022/06/09 09:12:12;;;;;;;5.13;3.83;;;19.40;66.50;20.50;100578.00;;;;4987847;28;20211;-44
2022/06/09 09:15:10;;;;;;;4.40;3.47;;;19.40;66.50;20.50;100586.00;;;;4899941;28;20167;-44
2022/06/09 09:18:07;;;;;;;4.90;3.90;;;19.40;66.50;20.50;100577.00;;;;4995200;28;20200;-44
2022/06/09 09:21:00;;;;;;;4.73;3.63;;;19.40;66.50;20.50;100590.00;;;;4990373;28;20211;-43
2022/06/09 09:23:50;;;;;;;4.10;3.70;;;19.40;66.40;20.50;100570.00;;;;4967293;28;20587;-43
2022/06/09 09:26:54;;;;;;;5.03;3.67;;;19.40;66.50;20.50;100593.00;;;;4974403;28;20180;-44
2022/06/09 09:29:33;;;;;;;4.93;3.63;;;19.30;66.30;20.50;100594.00;;;;4987989;28;20203;-43
2022/06/09 09:32:09;;;;;;;3.90;3.60;;;19.40;66.50;20.50;100581.00;;;;4972177;28;20610;-43
2022/06/09 09:34:41;;;;;;;4.77;3.77;;;19.40;66.40;20.50;100593.00;;;;4957829;28;20184;-42
2022/06/09 09:37:26;;;;;;;6.07;3.57;;;19.40;66.40;20.50;100604.00;;;;4992112;28;20179;-43
2022/06/09 09:40:10;;;;;;;4.33;3.53;;;19.40;67.00;20.50;100600.00;;;;4992953;28;20500;-42
2022/06/09 09:42:37;;;;;;;4.47;3.53;;;19.40;67.00;20.50;100597.00;;;;4992894;28;20254;-43
2022/06/09 09:45:14;;;;;;;4.90;3.60;;;19.40;67.10;20.50;100603.00;;;;4991664;28;20259;-42
2022/06/09 09:48:00;;;;;;;4.67;3.97;;;19.40;67.20;20.50;100590.00;;;;4992467;28;20198;-42
2022/06/09 09:51:06;;;;;;;6.27;4.00;;;19.40;67.20;20.50;100602.00;;;;4991077;28;20172;-43
2022/06/09 09:53:39;;;;;;;8.23;3.73;;;19.50;67.40;20.50;100598.00;;;;4992591;28;20674;-42
2022/06/09 09:56:16;;;;;;;5.40;3.90;;;19.60;68.10;20.50;100603.00;;;;4992522;28;20183;-42
2022/06/09 09:58:48;;;;;;;9.60;3.80;;;19.60;67.10;20.50;100609.00;;;;4993409;28;20553;-42
2022/06/09 10:01:17;;;;;;;11.07;4.03;;;19.60;67.10;20.50;100616.00;;;;4993644;28;20172;-42
2022/06/09 10:09:59;;;;;;;5.93;3.57;;;19.60;67.20;20.50;100617.00;;;;4971721;28;20265;-44
2022/06/09 10:12:33;;;;;;;8.90;4.30;;;19.70;67.30;20.50;100615.00;;;;4971085;28;20310;-44
2022/06/09 10:15:05;;;;;;;8.07;4.00;;;19.70;67.20;20.60;100627.00;;;;4899751;28;20161;-42
2022/06/09 10:17:55;;;;;;;5.50;3.50;;;19.70;67.20;20.60;100625.00;;;;4987312;28;20207;-42
2022/06/09 10:20:43;;;;;;;6.77;3.80;;;19.70;67.20;20.60;100652.00;;;;4978761;28;20796;-44
2022/06/09 10:23:18;;;;;;;9.07;3.73;;;19.70;67.20;20.60;100641.00;;;;4990435;28;20681;-44
2022/06/09 10:26:12;;;;;;;7.13;3.70;;;19.70;67.30;20.70;100630.00;;;;4991778;28;20167;-44
2022/06/09 10:29:05;;;;;;;5.67;3.43;;;19.80;67.30;20.70;100639.00;;;;4987326;28;20274;-44
2022/06/09 10:31:59;;;;;;;7.80;3.53;;;19.80;67.20;20.80;100664.00;;;;4979893;28;20603;-44
2022/06/09 10:35:02;;;;;;;7.23;3.70;;;19.80;67.40;20.80;100680.00;;;;4970772;28;20208;-41
2022/06/09 10:37:47;;;;;;;6.53;4.00;;;19.80;67.20;20.70;100675.00;;;;4958221;28;20178;-43
2022/06/09 10:40:41;;;;;;;5.43;3.40;;;19.80;67.20;20.80;100677.00;;;;4984406;28;20191;-43
2022/06/09 10:43:55;;;;;;;6.87;3.37;;;19.80;67.20;20.80;100693.00;;;;4990529;28;20188;-44
2022/06/09 10:46:45;;;;;;;5.43;3.13;;;19.80;68.00;20.80;100705.00;;;;4990986;28;20283;-43
2022/06/09 10:55:39;;;;;;;3.23;2.93;;;19.80;66.70;20.80;100699.00;;;;4989785;28;20583;-42
2022/06/09 10:58:37;;;;;;;6.77;3.37;;;19.80;66.50;20.80;100703.00;;;;4991015;28;20174;-42
2022/06/09 11:01:03;;;;;;;3.60;3.00;;;19.80;66.50;20.80;100702.00;;;;4989675;28;20579;-42
2022/06/09 11:03:40;;;;;;;4.47;3.10;;;19.80;66.50;20.80;100701.00;;;;4989218;28;20199;-43
2022/06/09 11:06:09;;;;;;;3.50;3.00;;;19.80;66.50;20.90;100694.00;;;;4989788;28;20650;-44
2022/06/09 11:09:45;;;;;;;5.33;3.07;;;19.80;66.50;20.90;100691.00;;;;4990780;28;20204;-44
2022/06/09 11:12:18;;;;;;;4.63;2.90;;;19.90;66.60;20.90;100690.00;;;;4990540;28;20217;-43
2022/06/09 11:14:58;;;;;;;3.97;2.70;;;19.90;66.60;20.90;100694.00;;;;4915216;28;20211;-43
2022/06/09 11:17:46;;;;;;;3.13;2.83;;;19.90;66.60;21.00;100690.00;;;;4990753;28;20210;-43
2022/06/09 11:20:50;;;;;;;3.13;2.80;;;19.90;66.60;21.00;100712.00;;;;4991334;28;20187;-43
2022/06/09 11:23:31;;;;;;;3.27;2.97;;;19.90;66.60;21.00;100713.00;;;;4977217;28;20516;-43
2022/06/09 11:26:12;;;;;;;4.17;2.70;;;20.00;67.50;21.00;100720.00;;;;4989811;28;20179;-44
2022/06/09 11:29:20;;;;;;;5.43;3.10;;;20.00;66.70;21.00;100727.00;;;;4990394;28;20559;-44
2022/06/09 11:31:49;;;;;;;5.13;2.80;;;20.00;66.70;21.00;100737.00;;;;4988017;28;20263;-44